sensor_id;sensor_type;location;lat;lon;timestamp;P1;durP1;ratioP1;P2;durP2;ratioP2
10945;SDS011;5525;42.648;23.368;2023-01-19T00:01:27;23.27;;;3.30;;
10945;SDS011;5525;42.648;23.368;2023-01-19T00:03:54;19.10;;;3.35;;
10945;SDS011;5525;42.648;23.368;2023-01-19T00:06:20;15.38;;;3.17;;
10945;SDS011;5525;42.648;23.368;2023-01-19T00:08:47;27.08;;;3.60;;
10945;SDS011;5525;42.648;23.368;2023-01-19T00:11:15;22.77;;;3.88;;
10945;SDS011;5525;42.648;23.368;2023-01-19T00:13:42;12.75;;;2.83;;
10945;SDS011;5525;42.648;23.368;2023-01-19T00:16:15;16.52;;;3.00;;
10945;SDS011;5525;42.648;23.368;2023-01-19T00:18:43;19.67;;;3.42;;
10945;SDS011;5525;42.648;23.368;2023-01-19T00:21:10;14.20;;;3.25;;
10945;SDS011;5525;42.648;23.368;2023-01-19T00:23:38;19.55;;;3.22;;
10945;SDS011;5525;42.648;23.368;2023-01-19T00:26:06;21.98;;;3.50;;
10945;SDS011;5525;42.648;23.368;2023-01-19T00:28:34;15.68;;;3.50;;
10945;SDS011;5525;42.648;23.368;2023-01-19T00:31:01;18.88;;;3.20;;
10945;SDS011;5525;42.648;23.368;2023-01-19T00:33:29;18.95;;;3.33;;
10945;SDS011;5525;42.648;23.368;2023-01-19T00:35:56;21.02;;;3.28;;
10945;SDS011;5525;42.648;23.368;2023-01-19T00:38:23;18.80;;;3.17;;
10945;SDS011;5525;42.648;23.368;2023-01-19T00:40:50;23.85;;;3.80;;
10945;SDS011;5525;42.648;23.368;2023-01-19T00:43:17;16.80;;;3.63;;
10945;SDS011;5525;42.648;23.368;2023-01-19T00:45:43;23.35;;;3.42;;
10945;SDS011;5525;42.648;23.368;2023-01-19T00:48:11;22.98;;;3.92;;
10945;SDS011;5525;42.648;23.368;2023-01-19T00:50:39;17.75;;;3.75;;
10945;SDS011;5525;42.648;23.368;2023-01-19T00:53:06;18.00;;;3.00;;
10945;SDS011;5525;42.648;23.368;2023-01-19T00:55:32;16.23;;;3.00;;
10945;SDS011;5525;42.648;23.368;2023-01-19T00:57:59;25.45;;;3.80;;
10945;SDS011;5525;42.648;23.368;2023-01-19T01:00:27;18.30;;;3.05;;
10945;SDS011;5525;42.648;23.368;2023-01-19T01:02:53;24.42;;;3.97;;
10945;SDS011;5525;42.648;23.368;2023-01-19T01:05:20;14.38;;;3.15;;
10945;SDS011;5525;42.648;23.368;2023-01-19T01:07:49;24.80;;;3.15;;
10945;SDS011;5525;42.648;23.368;2023-01-19T01:10:16;19.27;;;3.47;;
10945;SDS011;5525;42.648;23.368;2023-01-19T01:12:44;17.25;;;3.10;;
10945;SDS011;5525;42.648;23.368;2023-01-19T01:15:13;15.95;;;3.80;;
10945;SDS011;5525;42.648;23.368;2023-01-19T01:17:41;16.60;;;2.70;;
10945;SDS011;5525;42.648;23.368;2023-01-19T01:20:12;13.00;;;2.47;;
10945;SDS011;5525;42.648;23.368;2023-01-19T01:22:42;17.88;;;2.78;;
10945;SDS011;5525;42.648;23.368;2023-01-19T01:25:12;14.48;;;2.83;;
10945;SDS011;5525;42.648;23.368;2023-01-19T01:27:39;16.23;;;2.67;;
10945;SDS011;5525;42.648;23.368;2023-01-19T01:30:07;18.77;;;3.10;;
10945;SDS011;5525;42.648;23.368;2023-01-19T01:32:35;20.35;;;3.78;;
10945;SDS011;5525;42.648;23.368;2023-01-19T01:35:02;15.98;;;2.83;;
10945;SDS011;5525;42.648;23.368;2023-01-19T01:37:29;22.60;;;3.00;;
10945;SDS011;5525;42.648;23.368;2023-01-19T01:39:56;11.40;;;2.55;;
10945;SDS011;5525;42.648;23.368;2023-01-19T01:42:25;16.48;;;3.08;;
10945;SDS011;5525;42.648;23.368;2023-01-19T01:44:54;17.75;;;2.90;;
10945;SDS011;5525;42.648;23.368;2023-01-19T01:47:24;17.95;;;3.08;;
10945;SDS011;5525;42.648;23.368;2023-01-19T01:49:58;15.52;;;3.20;;
10945;SDS011;5525;42.648;23.368;2023-01-19T01:52:30;13.93;;;2.80;;
10945;SDS011;5525;42.648;23.368;2023-01-19T01:54:59;11.45;;;2.08;;
10945;SDS011;5525;42.648;23.368;2023-01-19T01:57:32;20.23;;;2.90;;
10945;SDS011;5525;42.648;23.368;2023-01-19T02:00:03;14.38;;;2.92;;
10945;SDS011;5525;42.648;23.368;2023-01-19T02:02:31;12.63;;;2.70;;
10945;SDS011;5525;42.648;23.368;2023-01-19T02:05:20;13.30;;;2.55;;
10945;SDS011;5525;42.648;23.368;2023-01-19T02:07:51;14.98;;;2.75;;
10945;SDS011;5525;42.648;23.368;2023-01-19T02:10:40;17.08;;;2.20;;
10945;SDS011;5525;42.648;23.368;2023-01-19T02:13:26;14.25;;;2.60;;
10945;SDS011;5525;42.648;23.368;2023-01-19T02:15:54;13.45;;;2.65;;
10945;SDS011;5525;42.648;23.368;2023-01-19T02:18:23;14.73;;;2.30;;
10945;SDS011;5525;42.648;23.368;2023-01-19T02:20:53;8.32;;;1.92;;
10945;SDS011;5525;42.648;23.368;2023-01-19T02:23:31;12.93;;;2.30;;
10945;SDS011;5525;42.648;23.368;2023-01-19T02:26:05;13.02;;;2.10;;
10945;SDS011;5525;42.648;23.368;2023-01-19T02:28:34;12.40;;;2.30;;
10945;SDS011;5525;42.648;23.368;2023-01-19T02:31:04;10.35;;;2.42;;
10945;SDS011;5525;42.648;23.368;2023-01-19T02:33:31;9.60;;;2.08;;
10945;SDS011;5525;42.648;23.368;2023-01-19T02:35:58;11.55;;;2.20;;
10945;SDS011;5525;42.648;23.368;2023-01-19T02:38:26;13.80;;;2.45;;
10945;SDS011;5525;42.648;23.368;2023-01-19T02:40:56;18.75;;;2.75;;
10945;SDS011;5525;42.648;23.368;2023-01-19T02:43:26;13.75;;;2.60;;
10945;SDS011;5525;42.648;23.368;2023-01-19T02:45:55;12.80;;;2.50;;
10945;SDS011;5525;42.648;23.368;2023-01-19T02:48:22;12.32;;;2.40;;
10945;SDS011;5525;42.648;23.368;2023-01-19T02:50:49;14.75;;;2.58;;
10945;SDS011;5525;42.648;23.368;2023-01-19T02:59:18;16.58;;;2.78;;
10945;SDS011;5525;42.648;23.368;2023-01-19T03:01:59;14.73;;;2.22;;
10945;SDS011;5525;42.648;23.368;2023-01-19T03:04:39;12.40;;;2.80;;
10945;SDS011;5525;42.648;23.368;2023-01-19T03:07:20;13.40;;;2.40;;
10945;SDS011;5525;42.648;23.368;2023-01-19T03:09:54;13.70;;;2.40;;
10945;SDS011;5525;42.648;23.368;2023-01-19T03:12:29;11.25;;;2.58;;
10945;SDS011;5525;42.648;23.368;2023-01-19T03:15:04;13.98;;;2.38;;
10945;SDS011;5525;42.648;23.368;2023-01-19T03:17:38;11.43;;;2.60;;
10945;SDS011;5525;42.648;23.368;2023-01-19T03:20:09;12.52;;;2.17;;
10945;SDS011;5525;42.648;23.368;2023-01-19T03:22:38;15.63;;;2.38;;
10945;SDS011;5525;42.648;23.368;2023-01-19T03:25:05;16.23;;;2.90;;
10945;SDS011;5525;42.648;23.368;2023-01-19T03:27:35;14.98;;;2.35;;
10945;SDS011;5525;42.648;23.368;2023-01-19T03:30:07;13.52;;;2.60;;
10945;SDS011;5525;42.648;23.368;2023-01-19T03:32:38;17.65;;;3.10;;
10945;SDS011;5525;42.648;23.368;2023-01-19T03:35:09;19.00;;;3.75;;
10945;SDS011;5525;42.648;23.368;2023-01-19T03:37:40;19.92;;;3.35;;
10945;SDS011;5525;42.648;23.368;2023-01-19T03:40:10;12.50;;;3.10;;
10945;SDS011;5525;42.648;23.368;2023-01-19T03:42:39;18.77;;;2.65;;
10945;SDS011;5525;42.648;23.368;2023-01-19T03:45:07;18.65;;;2.63;;
10945;SDS011;5525;42.648;23.368;2023-01-19T03:47:36;14.10;;;2.83;;
10945;SDS011;5525;42.648;23.368;2023-01-19T03:50:05;17.77;;;2.95;;
10945;SDS011;5525;42.648;23.368;2023-01-19T03:52:37;21.02;;;3.17;;
10945;SDS011;5525;42.648;23.368;2023-01-19T03:55:04;17.08;;;2.97;;
10945;SDS011;5525;42.648;23.368;2023-01-19T03:57:32;19.25;;;3.13;;
10945;SDS011;5525;42.648;23.368;2023-01-19T04:00:00;16.55;;;2.95;;
10945;SDS011;5525;42.648;23.368;2023-01-19T04:02:26;15.15;;;3.05;;
10945;SDS011;5525;42.648;23.368;2023-01-19T04:04:53;18.70;;;3.17;;
10945;SDS011;5525;42.648;23.368;2023-01-19T04:07:20;24.55;;;3.53;;
10945;SDS011;5525;42.648;23.368;2023-01-19T04:09:46;19.02;;;3.10;;
10945;SDS011;5525;42.648;23.368;2023-01-19T04:12:13;17.90;;;3.72;;
10945;SDS011;5525;42.648;23.368;2023-01-19T04:14:40;19.95;;;3.28;;
10945;SDS011;5525;42.648;23.368;2023-01-19T04:17:08;22.98;;;3.80;;
10945;SDS011;5525;42.648;23.368;2023-01-19T04:19:36;22.65;;;3.78;;
10945;SDS011;5525;42.648;23.368;2023-01-19T04:22:02;27.17;;;4.68;;
10945;SDS011;5525;42.648;23.368;2023-01-19T04:24:29;19.50;;;3.70;;
10945;SDS011;5525;42.648;23.368;2023-01-19T04:26:56;23.33;;;4.25;;
10945;SDS011;5525;42.648;23.368;2023-01-19T04:29:23;27.60;;;4.05;;
10945;SDS011;5525;42.648;23.368;2023-01-19T04:31:50;21.55;;;3.58;;
10945;SDS011;5525;42.648;23.368;2023-01-19T04:34:18;21.30;;;3.60;;
10945;SDS011;5525;42.648;23.368;2023-01-19T04:36:45;29.05;;;4.25;;
10945;SDS011;5525;42.648;23.368;2023-01-19T04:39:15;27.23;;;3.88;;
10945;SDS011;5525;42.648;23.368;2023-01-19T04:41:42;21.83;;;4.05;;
10945;SDS011;5525;42.648;23.368;2023-01-19T04:44:08;27.00;;;4.35;;
10945;SDS011;5525;42.648;23.368;2023-01-19T04:46:35;27.80;;;5.00;;
10945;SDS011;5525;42.648;23.368;2023-01-19T04:49:02;25.88;;;4.50;;
10945;SDS011;5525;42.648;23.368;2023-01-19T04:51:30;29.30;;;3.97;;
10945;SDS011;5525;42.648;23.368;2023-01-19T04:53:58;24.67;;;4.40;;
10945;SDS011;5525;42.648;23.368;2023-01-19T04:56:25;24.77;;;4.53;;
10945;SDS011;5525;42.648;23.368;2023-01-19T04:58:52;21.90;;;4.53;;
10945;SDS011;5525;42.648;23.368;2023-01-19T05:01:19;22.13;;;4.50;;
10945;SDS011;5525;42.648;23.368;2023-01-19T05:03:46;25.17;;;4.05;;
10945;SDS011;5525;42.648;23.368;2023-01-19T05:06:13;22.80;;;4.30;;
10945;SDS011;5525;42.648;23.368;2023-01-19T05:08:41;27.60;;;4.78;;
10945;SDS011;5525;42.648;23.368;2023-01-19T05:11:08;21.42;;;4.10;;
10945;SDS011;5525;42.648;23.368;2023-01-19T05:13:35;23.05;;;4.47;;
10945;SDS011;5525;42.648;23.368;2023-01-19T05:16:02;23.45;;;4.20;;
10945;SDS011;5525;42.648;23.368;2023-01-19T05:18:30;28.85;;;4.43;;
10945;SDS011;5525;42.648;23.368;2023-01-19T05:21:00;23.52;;;4.03;;
10945;SDS011;5525;42.648;23.368;2023-01-19T05:23:27;26.05;;;4.50;;
10945;SDS011;5525;42.648;23.368;2023-01-19T05:25:56;20.48;;;4.00;;
10945;SDS011;5525;42.648;23.368;2023-01-19T05:28:24;26.00;;;4.57;;
10945;SDS011;5525;42.648;23.368;2023-01-19T05:30:51;22.77;;;3.83;;
10945;SDS011;5525;42.648;23.368;2023-01-19T05:33:19;25.25;;;4.07;;
10945;SDS011;5525;42.648;23.368;2023-01-19T05:35:48;19.33;;;3.92;;
10945;SDS011;5525;42.648;23.368;2023-01-19T05:38:15;24.70;;;3.97;;
10945;SDS011;5525;42.648;23.368;2023-01-19T05:40:41;21.08;;;4.05;;
10945;SDS011;5525;42.648;23.368;2023-01-19T05:43:10;25.20;;;4.15;;
10945;SDS011;5525;42.648;23.368;2023-01-19T05:45:36;22.20;;;4.65;;
10945;SDS011;5525;42.648;23.368;2023-01-19T05:48:04;22.23;;;4.45;;
10945;SDS011;5525;42.648;23.368;2023-01-19T05:50:31;26.30;;;4.78;;
10945;SDS011;5525;42.648;23.368;2023-01-19T05:52:58;21.33;;;4.40;;
10945;SDS011;5525;42.648;23.368;2023-01-19T05:55:25;22.85;;;4.30;;
10945;SDS011;5525;42.648;23.368;2023-01-19T05:57:52;26.77;;;4.72;;
10945;SDS011;5525;42.648;23.368;2023-01-19T06:00:20;26.70;;;5.05;;
10945;SDS011;5525;42.648;23.368;2023-01-19T06:02:47;25.40;;;4.20;;
10945;SDS011;5525;42.648;23.368;2023-01-19T06:05:13;33.83;;;5.10;;
10945;SDS011;5525;42.648;23.368;2023-01-19T06:07:40;24.70;;;5.28;;
10945;SDS011;5525;42.648;23.368;2023-01-19T06:10:08;23.83;;;4.47;;
10945;SDS011;5525;42.648;23.368;2023-01-19T06:12:37;26.38;;;4.43;;
10945;SDS011;5525;42.648;23.368;2023-01-19T06:15:05;23.02;;;4.18;;
10945;SDS011;5525;42.648;23.368;2023-01-19T06:17:34;20.33;;;4.28;;
10945;SDS011;5525;42.648;23.368;2023-01-19T06:20:01;22.52;;;4.65;;
10945;SDS011;5525;42.648;23.368;2023-01-19T06:22:29;25.45;;;4.50;;
10945;SDS011;5525;42.648;23.368;2023-01-19T06:24:56;26.10;;;4.82;;
10945;SDS011;5525;42.648;23.368;2023-01-19T06:27:23;22.08;;;4.72;;
10945;SDS011;5525;42.648;23.368;2023-01-19T06:29:49;24.60;;;5.35;;
10945;SDS011;5525;42.648;23.368;2023-01-19T06:32:16;28.05;;;5.00;;
10945;SDS011;5525;42.648;23.368;2023-01-19T06:34:45;27.20;;;4.60;;
10945;SDS011;5525;42.648;23.368;2023-01-19T06:37:13;36.00;;;5.95;;
10945;SDS011;5525;42.648;23.368;2023-01-19T06:39:40;24.70;;;4.70;;
10945;SDS011;5525;42.648;23.368;2023-01-19T06:42:09;30.52;;;5.65;;
10945;SDS011;5525;42.648;23.368;2023-01-19T06:44:37;29.48;;;4.90;;
10945;SDS011;5525;42.648;23.368;2023-01-19T06:47:07;24.45;;;4.57;;
10945;SDS011;5525;42.648;23.368;2023-01-19T06:49:39;23.95;;;3.78;;
10945;SDS011;5525;42.648;23.368;2023-01-19T06:54:53;25.88;;;5.28;;
10945;SDS011;5525;42.648;23.368;2023-01-19T06:57:20;31.65;;;5.45;;
10945;SDS011;5525;42.648;23.368;2023-01-19T06:59:50;24.60;;;4.82;;
10945;SDS011;5525;42.648;23.368;2023-01-19T07:02:24;29.17;;;5.07;;
10945;SDS011;5525;42.648;23.368;2023-01-19T07:04:52;20.23;;;4.65;;
10945;SDS011;5525;42.648;23.368;2023-01-19T07:07:19;32.63;;;5.30;;
10945;SDS011;5525;42.648;23.368;2023-01-19T07:09:49;26.50;;;4.75;;
10945;SDS011;5525;42.648;23.368;2023-01-19T07:12:19;23.17;;;5.32;;
10945;SDS011;5525;42.648;23.368;2023-01-19T07:14:46;26.13;;;4.70;;
10945;SDS011;5525;42.648;23.368;2023-01-19T07:17:15;29.98;;;5.32;;
10945;SDS011;5525;42.648;23.368;2023-01-19T07:19:42;23.17;;;5.28;;
10945;SDS011;5525;42.648;23.368;2023-01-19T07:22:10;29.38;;;5.10;;
10945;SDS011;5525;42.648;23.368;2023-01-19T07:24:39;34.13;;;4.57;;
10945;SDS011;5525;42.648;23.368;2023-01-19T07:27:07;28.90;;;4.72;;
10945;SDS011;5525;42.648;23.368;2023-01-19T07:29:36;26.38;;;5.35;;
10945;SDS011;5525;42.648;23.368;2023-01-19T07:32:06;23.67;;;4.90;;
10945;SDS011;5525;42.648;23.368;2023-01-19T07:34:36;27.70;;;4.53;;
10945;SDS011;5525;42.648;23.368;2023-01-19T07:37:07;21.40;;;4.57;;
10945;SDS011;5525;42.648;23.368;2023-01-19T07:39:37;26.30;;;4.68;;
10945;SDS011;5525;42.648;23.368;2023-01-19T07:42:05;32.35;;;5.15;;
10945;SDS011;5525;42.648;23.368;2023-01-19T07:44:37;23.48;;;4.47;;
10945;SDS011;5525;42.648;23.368;2023-01-19T07:47:05;27.88;;;5.13;;
10945;SDS011;5525;42.648;23.368;2023-01-19T07:49:36;30.00;;;5.38;;
10945;SDS011;5525;42.648;23.368;2023-01-19T07:52:04;29.30;;;5.28;;
10945;SDS011;5525;42.648;23.368;2023-01-19T07:54:34;29.30;;;4.75;;
10945;SDS011;5525;42.648;23.368;2023-01-19T07:57:00;26.98;;;5.03;;
10945;SDS011;5525;42.648;23.368;2023-01-19T07:59:29;30.35;;;4.75;;
10945;SDS011;5525;42.648;23.368;2023-01-19T08:01:56;24.05;;;4.97;;
10945;SDS011;5525;42.648;23.368;2023-01-19T08:04:25;28.63;;;5.38;;
10945;SDS011;5525;42.648;23.368;2023-01-19T08:06:58;20.88;;;4.75;;
10945;SDS011;5525;42.648;23.368;2023-01-19T08:09:26;26.27;;;5.45;;
10945;SDS011;5525;42.648;23.368;2023-01-19T08:11:56;23.15;;;4.60;;
10945;SDS011;5525;42.648;23.368;2023-01-19T08:14:23;21.85;;;4.38;;
10945;SDS011;5525;42.648;23.368;2023-01-19T08:16:53;27.48;;;5.15;;
10945;SDS011;5525;42.648;23.368;2023-01-19T08:19:20;29.25;;;5.38;;
10945;SDS011;5525;42.648;23.368;2023-01-19T08:21:47;26.35;;;5.55;;
10945;SDS011;5525;42.648;23.368;2023-01-19T08:24:16;30.50;;;5.57;;
10945;SDS011;5525;42.648;23.368;2023-01-19T08:26:45;33.08;;;5.78;;
10945;SDS011;5525;42.648;23.368;2023-01-19T08:29:13;30.42;;;5.72;;
10945;SDS011;5525;42.648;23.368;2023-01-19T08:31:40;31.13;;;6.13;;
10945;SDS011;5525;42.648;23.368;2023-01-19T08:34:09;31.17;;;6.15;;
10945;SDS011;5525;42.648;23.368;2023-01-19T08:36:36;34.88;;;5.95;;
10945;SDS011;5525;42.648;23.368;2023-01-19T08:39:04;34.10;;;5.53;;
10945;SDS011;5525;42.648;23.368;2023-01-19T08:41:32;28.95;;;5.65;;
10945;SDS011;5525;42.648;23.368;2023-01-19T08:44:02;23.70;;;4.57;;
10945;SDS011;5525;42.648;23.368;2023-01-19T08:46:29;31.65;;;5.60;;
10945;SDS011;5525;42.648;23.368;2023-01-19T08:48:56;29.38;;;5.82;;
10945;SDS011;5525;42.648;23.368;2023-01-19T08:51:28;32.05;;;5.18;;
10945;SDS011;5525;42.648;23.368;2023-01-19T08:53:55;24.25;;;4.80;;
10945;SDS011;5525;42.648;23.368;2023-01-19T08:56:25;24.77;;;4.43;;
10945;SDS011;5525;42.648;23.368;2023-01-19T08:58:51;24.92;;;4.70;;
10945;SDS011;5525;42.648;23.368;2023-01-19T09:01:19;24.20;;;4.55;;
10945;SDS011;5525;42.648;23.368;2023-01-19T09:03:46;27.27;;;5.13;;
10945;SDS011;5525;42.648;23.368;2023-01-19T09:06:17;25.17;;;4.75;;
10945;SDS011;5525;42.648;23.368;2023-01-19T09:08:45;26.27;;;5.13;;
10945;SDS011;5525;42.648;23.368;2023-01-19T09:11:16;36.15;;;5.40;;
10945;SDS011;5525;42.648;23.368;2023-01-19T09:13:43;21.63;;;4.68;;
10945;SDS011;5525;42.648;23.368;2023-01-19T09:16:10;28.60;;;4.90;;
10945;SDS011;5525;42.648;23.368;2023-01-19T09:18:42;19.58;;;4.32;;
10945;SDS011;5525;42.648;23.368;2023-01-19T09:21:10;20.23;;;3.90;;
10945;SDS011;5525;42.648;23.368;2023-01-19T09:23:39;26.42;;;4.50;;
10945;SDS011;5525;42.648;23.368;2023-01-19T09:26:08;25.55;;;4.45;;
10945;SDS011;5525;42.648;23.368;2023-01-19T09:28:37;17.85;;;3.30;;
10945;SDS011;5525;42.648;23.368;2023-01-19T09:31:07;23.40;;;4.75;;
10945;SDS011;5525;42.648;23.368;2023-01-19T09:33:34;22.38;;;4.18;;
10945;SDS011;5525;42.648;23.368;2023-01-19T09:36:06;23.95;;;4.05;;
10945;SDS011;5525;42.648;23.368;2023-01-19T09:38:33;18.75;;;3.60;;
10945;SDS011;5525;42.648;23.368;2023-01-19T09:41:00;18.83;;;3.78;;
10945;SDS011;5525;42.648;23.368;2023-01-19T09:43:41;18.83;;;3.45;;
10945;SDS011;5525;42.648;23.368;2023-01-19T09:46:12;15.70;;;2.67;;
10945;SDS011;5525;42.648;23.368;2023-01-19T09:48:44;18.90;;;3.60;;
10945;SDS011;5525;42.648;23.368;2023-01-19T09:51:14;22.65;;;3.95;;
10945;SDS011;5525;42.648;23.368;2023-01-19T09:53:50;17.40;;;3.13;;
10945;SDS011;5525;42.648;23.368;2023-01-19T09:56:20;19.08;;;3.55;;
10945;SDS011;5525;42.648;23.368;2023-01-19T09:58:50;19.67;;;3.58;;
10945;SDS011;5525;42.648;23.368;2023-01-19T10:09:45;21.35;;;4.00;;
10945;SDS011;5525;42.648;23.368;2023-01-19T10:12:25;15.32;;;2.65;;
10945;SDS011;5525;42.648;23.368;2023-01-19T10:15:04;11.23;;;2.88;;
10945;SDS011;5525;42.648;23.368;2023-01-19T10:17:55;15.80;;;3.20;;
10945;SDS011;5525;42.648;23.368;2023-01-19T10:20:36;13.30;;;3.08;;
10945;SDS011;5525;42.648;23.368;2023-01-19T10:23:12;16.75;;;2.90;;
10945;SDS011;5525;42.648;23.368;2023-01-19T10:25:50;13.10;;;2.70;;
10945;SDS011;5525;42.648;23.368;2023-01-19T10:28:22;14.13;;;2.90;;
10945;SDS011;5525;42.648;23.368;2023-01-19T10:30:56;14.65;;;3.38;;
10945;SDS011;5525;42.648;23.368;2023-01-19T10:33:23;8.05;;;2.35;;
10945;SDS011;5525;42.648;23.368;2023-01-19T10:35:50;10.02;;;2.60;;
10945;SDS011;5525;42.648;23.368;2023-01-19T10:38:17;15.20;;;3.00;;
10945;SDS011;5525;42.648;23.368;2023-01-19T10:40:48;14.32;;;2.90;;
10945;SDS011;5525;42.648;23.368;2023-01-19T10:43:38;17.10;;;3.22;;
10945;SDS011;5525;42.648;23.368;2023-01-19T10:46:15;11.25;;;2.70;;
10945;SDS011;5525;42.648;23.368;2023-01-19T10:48:49;14.73;;;2.63;;
10945;SDS011;5525;42.648;23.368;2023-01-19T10:51:18;11.65;;;2.65;;
10945;SDS011;5525;42.648;23.368;2023-01-19T10:53:54;12.43;;;2.83;;
10945;SDS011;5525;42.648;23.368;2023-01-19T10:56:27;10.18;;;2.80;;
10945;SDS011;5525;42.648;23.368;2023-01-19T10:58:58;18.45;;;2.90;;
10945;SDS011;5525;42.648;23.368;2023-01-19T11:01:28;15.52;;;2.88;;
10945;SDS011;5525;42.648;23.368;2023-01-19T11:04:01;13.75;;;2.72;;
10945;SDS011;5525;42.648;23.368;2023-01-19T11:06:46;15.93;;;2.83;;
10945;SDS011;5525;42.648;23.368;2023-01-19T11:09:15;15.23;;;2.67;;
10945;SDS011;5525;42.648;23.368;2023-01-19T11:11:44;13.90;;;2.85;;
10945;SDS011;5525;42.648;23.368;2023-01-19T11:14:13;13.40;;;2.65;;
10945;SDS011;5525;42.648;23.368;2023-01-19T11:16:46;10.75;;;2.67;;
10945;SDS011;5525;42.648;23.368;2023-01-19T11:19:19;11.88;;;2.50;;
10945;SDS011;5525;42.648;23.368;2023-01-19T11:21:50;16.40;;;3.22;;
10945;SDS011;5525;42.648;23.368;2023-01-19T11:24:18;10.60;;;2.88;;
10945;SDS011;5525;42.648;23.368;2023-01-19T11:26:47;11.50;;;2.70;;
10945;SDS011;5525;42.648;23.368;2023-01-19T11:29:22;17.05;;;2.80;;
10945;SDS011;5525;42.648;23.368;2023-01-19T11:31:52;10.63;;;2.65;;
10945;SDS011;5525;42.648;23.368;2023-01-19T11:34:22;10.90;;;2.40;;
10945;SDS011;5525;42.648;23.368;2023-01-19T11:36:57;15.07;;;2.47;;
10945;SDS011;5525;42.648;23.368;2023-01-19T11:39:33;15.40;;;2.88;;
10945;SDS011;5525;42.648;23.368;2023-01-19T11:42:11;11.07;;;2.50;;
10945;SDS011;5525;42.648;23.368;2023-01-19T11:44:43;10.70;;;2.45;;
10945;SDS011;5525;42.648;23.368;2023-01-19T11:47:15;9.15;;;2.05;;
10945;SDS011;5525;42.648;23.368;2023-01-19T11:49:49;8.05;;;2.05;;
10945;SDS011;5525;42.648;23.368;2023-01-19T11:52:25;13.85;;;3.17;;
10945;SDS011;5525;42.648;23.368;2023-01-19T11:54:57;9.05;;;2.20;;
10945;SDS011;5525;42.648;23.368;2023-01-19T11:57:31;8.45;;;2.20;;
10945;SDS011;5525;42.648;23.368;2023-01-19T12:00:00;14.00;;;2.40;;
10945;SDS011;5525;42.648;23.368;2023-01-19T12:02:36;13.63;;;2.55;;
10945;SDS011;5525;42.648;23.368;2023-01-19T12:05:10;6.53;;;2.00;;
10945;SDS011;5525;42.648;23.368;2023-01-19T12:07:40;11.57;;;2.50;;
10945;SDS011;5525;42.648;23.368;2023-01-19T12:10:15;10.70;;;2.63;;
10945;SDS011;5525;42.648;23.368;2023-01-19T12:12:50;11.45;;;3.00;;
10945;SDS011;5525;42.648;23.368;2023-01-19T12:15:20;12.60;;;2.45;;
10945;SDS011;5525;42.648;23.368;2023-01-19T12:17:57;12.60;;;2.75;;
10945;SDS011;5525;42.648;23.368;2023-01-19T12:20:30;13.13;;;2.30;;
10945;SDS011;5525;42.648;23.368;2023-01-19T12:23:05;9.50;;;2.25;;
10945;SDS011;5525;42.648;23.368;2023-01-19T12:25:41;9.23;;;2.20;;
10945;SDS011;5525;42.648;23.368;2023-01-19T12:28:17;10.57;;;2.35;;
10945;SDS011;5525;42.648;23.368;2023-01-19T12:30:50;14.20;;;2.63;;
10945;SDS011;5525;42.648;23.368;2023-01-19T12:33:34;10.68;;;2.15;;
10945;SDS011;5525;42.648;23.368;2023-01-19T12:36:04;8.68;;;2.10;;
10945;SDS011;5525;42.648;23.368;2023-01-19T12:38:36;12.88;;;2.20;;
10945;SDS011;5525;42.648;23.368;2023-01-19T12:41:16;6.63;;;2.03;;
10945;SDS011;5525;42.648;23.368;2023-01-19T12:43:45;7.50;;;1.73;;
10945;SDS011;5525;42.648;23.368;2023-01-19T12:46:19;8.52;;;1.80;;
10945;SDS011;5525;42.648;23.368;2023-01-19T12:49:03;6.63;;;2.05;;
10945;SDS011;5525;42.648;23.368;2023-01-19T12:51:31;9.52;;;2.05;;
10945;SDS011;5525;42.648;23.368;2023-01-19T12:53:59;5.60;;;1.73;;
10945;SDS011;5525;42.648;23.368;2023-01-19T12:56:30;13.15;;;2.75;;
10945;SDS011;5525;42.648;23.368;2023-01-19T12:59:00;7.35;;;1.90;;
10945;SDS011;5525;42.648;23.368;2023-01-19T13:01:28;8.48;;;2.17;;
10945;SDS011;5525;42.648;23.368;2023-01-19T13:04:03;10.60;;;2.38;;
10945;SDS011;5525;42.648;23.368;2023-01-19T13:09:34;11.77;;;1.67;;
10945;SDS011;5525;42.648;23.368;2023-01-19T13:12:09;5.75;;;2.55;;
10945;SDS011;5525;42.648;23.368;2023-01-19T13:14:47;7.57;;;2.30;;
10945;SDS011;5525;42.648;23.368;2023-01-19T13:17:23;9.27;;;1.95;;
10945;SDS011;5525;42.648;23.368;2023-01-19T13:20:16;8.13;;;2.15;;
10945;SDS011;5525;42.648;23.368;2023-01-19T13:25:50;6.57;;;2.42;;
10945;SDS011;5525;42.648;23.368;2023-01-19T13:28:29;9.13;;;2.30;;
10945;SDS011;5525;42.648;23.368;2023-01-19T13:30:58;10.02;;;2.10;;
10945;SDS011;5525;42.648;23.368;2023-01-19T13:33:34;9.40;;;2.00;;
10945;SDS011;5525;42.648;23.368;2023-01-19T13:36:14;7.47;;;1.77;;
10945;SDS011;5525;42.648;23.368;2023-01-19T13:38:46;6.47;;;2.00;;
10945;SDS011;5525;42.648;23.368;2023-01-19T13:41:14;8.68;;;1.73;;
10945;SDS011;5525;42.648;23.368;2023-01-19T13:43:44;11.25;;;1.90;;
10945;SDS011;5525;42.648;23.368;2023-01-19T13:46:12;7.90;;;1.75;;
10945;SDS011;5525;42.648;23.368;2023-01-19T13:48:50;7.40;;;2.17;;
10945;SDS011;5525;42.648;23.368;2023-01-19T13:51:21;8.52;;;2.88;;
10945;SDS011;5525;42.648;23.368;2023-01-19T13:53:54;6.45;;;2.15;;
10945;SDS011;5525;42.648;23.368;2023-01-19T13:56:22;7.07;;;1.88;;
10945;SDS011;5525;42.648;23.368;2023-01-19T13:59:01;6.50;;;2.00;;
10945;SDS011;5525;42.648;23.368;2023-01-19T14:01:34;7.93;;;2.10;;
10945;SDS011;5525;42.648;23.368;2023-01-19T14:04:04;8.65;;;2.05;;
10945;SDS011;5525;42.648;23.368;2023-01-19T14:06:36;4.57;;;1.60;;
10945;SDS011;5525;42.648;23.368;2023-01-19T14:09:07;6.63;;;1.95;;
10945;SDS011;5525;42.648;23.368;2023-01-19T14:11:42;9.88;;;1.90;;
10945;SDS011;5525;42.648;23.368;2023-01-19T14:16:56;6.70;;;2.03;;
10945;SDS011;5525;42.648;23.368;2023-01-19T14:19:23;4.10;;;1.70;;
10945;SDS011;5525;42.648;23.368;2023-01-19T14:21:59;6.40;;;2.08;;
10945;SDS011;5525;42.648;23.368;2023-01-19T14:24:28;5.93;;;1.80;;
10945;SDS011;5525;42.648;23.368;2023-01-19T14:27:15;5.93;;;1.80;;
10945;SDS011;5525;42.648;23.368;2023-01-19T14:29:45;5.90;;;1.50;;
10945;SDS011;5525;42.648;23.368;2023-01-19T14:32:15;9.32;;;1.50;;
10945;SDS011;5525;42.648;23.368;2023-01-19T14:34:44;8.60;;;1.67;;
10945;SDS011;5525;42.648;23.368;2023-01-19T14:37:18;6.65;;;1.90;;
10945;SDS011;5525;42.648;23.368;2023-01-19T14:39:50;7.50;;;1.50;;
10945;SDS011;5525;42.648;23.368;2023-01-19T14:42:25;7.18;;;2.10;;
10945;SDS011;5525;42.648;23.368;2023-01-19T14:44:54;8.65;;;2.58;;
10945;SDS011;5525;42.648;23.368;2023-01-19T14:47:25;4.57;;;1.88;;
10945;SDS011;5525;42.648;23.368;2023-01-19T14:49:59;6.88;;;2.00;;
10945;SDS011;5525;42.648;23.368;2023-01-19T14:52:33;6.93;;;1.80;;
10945;SDS011;5525;42.648;23.368;2023-01-19T14:55:04;7.28;;;1.77;;
10945;SDS011;5525;42.648;23.368;2023-01-19T14:57:33;8.57;;;2.20;;
10945;SDS011;5525;42.648;23.368;2023-01-19T15:00:08;8.10;;;1.92;;
10945;SDS011;5525;42.648;23.368;2023-01-19T15:02:40;7.20;;;2.10;;
10945;SDS011;5525;42.648;23.368;2023-01-19T15:05:08;8.48;;;2.28;;
10945;SDS011;5525;42.648;23.368;2023-01-19T15:07:36;7.97;;;2.05;;
10945;SDS011;5525;42.648;23.368;2023-01-19T15:10:08;7.90;;;1.73;;
10945;SDS011;5525;42.648;23.368;2023-01-19T15:12:40;9.13;;;2.00;;
10945;SDS011;5525;42.648;23.368;2023-01-19T15:15:12;5.50;;;2.20;;
10945;SDS011;5525;42.648;23.368;2023-01-19T15:17:40;5.68;;;2.13;;
10945;SDS011;5525;42.648;23.368;2023-01-19T15:20:10;7.53;;;2.08;;